Union Cross, North Carolina
Current Conditions -  °F | °C
As of 8:54 AM on Thursday 23 Oct 2014 (Local Time) from KGSO Reporting Station
Clear Clear  
Wind Chill: 47°   Ceiling: Unl
Heat Index: 49°   Visibility: 10mi
Dew Point: 40°   Wind: 6mph
Humidity: 71%   Direction: 320°NW
Pressure: 30.04"   Gusts: NA
Location:  36.1188°N, 80.075°W
Report Text: KGSO 231254Z 32005KT 10SM CLR 09/04 A3004 RMK AO2 SLP172 T00940044
Loading
Personal Weather Stations






























Interactive Weather Map
Tropical Storm Tracking
New forecast layout! Learn more

10-Day Weather Forecast

Advertisements
Track Severe Weather on mobile